Archival Weather

Chicago O'Hare International

Chicago, Illinois (KORD)

Report from: Sunday, March 6, 2022 9:51 AM CST
Current time: Saturday, February 4, 2023 11:00 PM CST

Current weather
Weather history
Weather forecast

Temperature2.2°C (36.0°F)
Wind chill-4.0°C (24.7°F)
Dew point-2.8°C (27.0°F)
Winds 19 kts (9.8 m/s, 21.9 mph) West (270°)
Wind gusts 32 kts (16.5 m/s, 36.8 mph)
Peak wind 36 kts (18.5 m/s, 41.4 mph) West (260°) at 09:19
Visibility10 mi. (16.1 km)
Clouds Ceiling: Overcast 1,800 ft. (549 m)
Altimeter29.96 in.Hg (1015 mB)
Relative humidity69 %
Density altitude-1,524 ft. (-464 m)
Sea-level pressure101.5 kPa (1015 mB, 29.96 in.Hg)
Remarks System requires maintenance
Automated weather observing station with precipitation discriminator
Flight conditions Marginal Visual Meteorological Conditions
Raw dataKORD 061551Z 27019G32KT 10SM OVC018 02/M03 A2996 RMK AO2 PK WND 26036/1519 SLP147 T00221028 $
An unhandled exception has occurred. See browser dev tools for details. Reload 🗙